DLH7T EDDM-EDDB
Flight info
| Callsign | DLH7T |
|---|---|
| Flight time | 0h 51m |
| Altitude | 29000 |
| Route | AKINI1N AKINI Y104 MAMOR L132 RUDNO T203 TIVDA DCT ETVIS DCT NAVEK DCT GAVLI T203 ATGUP |
| Aircraft | A320/M-SDE3FGHIRWY/LB1 |
Departure
| Time | 2026-05-07 14:24 |
|---|---|
| Airport | Munich Airport (EDDM) |
Arrival
| Time | 2026-05-07 15:15 |
|---|---|
| Airport | Berlin Brandenburg Airport (EDDB) |
| Time | Latitude | Longitude | Altitude | Speed | Heading |
|---|---|---|---|---|---|
| 2026-05-07 14:01 | 48.35689 | 11.79263 | 1486 ft | 0 kts | 263° |
| 2026-05-07 14:12 | 48.35691 | 11.79286 | 1471 ft | 2 kts | 265° |
| 2026-05-07 14:13 | 48.35693 | 11.79311 | 1471 ft | 2 kts | 263° |
| 2026-05-07 14:13 | 48.35694 | 11.79336 | 1473 ft | 2 kts | 263° |
| 2026-05-07 14:13 | 48.35696 | 11.79360 | 1473 ft | 2 kts | 263° |
| 2026-05-07 14:13 | 48.35698 | 11.79380 | 1473 ft | 2 kts | 263° |
| 2026-05-07 14:14 | 48.35700 | 11.79406 | 1475 ft | 2 kts | 313° |
| 2026-05-07 14:14 | 48.35685 | 11.79414 | 1473 ft | 2 kts | 349° |
| 2026-05-07 14:14 | 48.35680 | 11.79416 | 1474 ft | 0 kts | 353° |
| 2026-05-07 14:16 | 48.35688 | 11.79415 | 1473 ft | 3 kts | 354° |
| 2026-05-07 14:16 | 48.35708 | 11.79411 | 1473 ft | 4 kts | 352° |
| 2026-05-07 14:16 | 48.35746 | 11.79403 | 1482 ft | 7 kts | 352° |
| 2026-05-07 14:16 | 48.35814 | 11.79391 | 1485 ft | 12 kts | 353° |
| 2026-05-07 14:17 | 48.35891 | 11.79405 | 1475 ft | 12 kts | 46° |
| 2026-05-07 14:17 | 48.35943 | 11.79506 | 1483 ft | 13 kts | 10° |
| 2026-05-07 14:17 | 48.36039 | 11.79489 | 1485 ft | 15 kts | 354° |
| 2026-05-07 14:17 | 48.36110 | 11.79534 | 1485 ft | 13 kts | 76° |
| 2026-05-07 14:18 | 48.36121 | 11.79679 | 1485 ft | 15 kts | 83° |
| 2026-05-07 14:18 | 48.36134 | 11.79849 | 1485 ft | 17 kts | 82° |
| 2026-05-07 14:18 | 48.36149 | 11.80040 | 1485 ft | 19 kts | 84° |
| 2026-05-07 14:18 | 48.36164 | 11.80245 | 1471 ft | 20 kts | 84° |
| 2026-05-07 14:19 | 48.36179 | 11.80432 | 1478 ft | 17 kts | 83° |
| 2026-05-07 14:19 | 48.36193 | 11.80609 | 1478 ft | 17 kts | 84° |
| 2026-05-07 14:19 | 48.36205 | 11.80774 | 1485 ft | 15 kts | 83° |
| 2026-05-07 14:19 | 48.36217 | 11.80930 | 1485 ft | 14 kts | 84° |
| 2026-05-07 14:20 | 48.36228 | 11.81070 | 1485 ft | 13 kts | 83° |
| 2026-05-07 14:20 | 48.36237 | 11.81193 | 1472 ft | 11 kts | 83° |
| 2026-05-07 14:20 | 48.36246 | 11.81304 | 1485 ft | 10 kts | 82° |
| 2026-05-07 14:20 | 48.36254 | 11.81402 | 1485 ft | 9 kts | 84° |
| 2026-05-07 14:21 | 48.36263 | 11.81522 | 1485 ft | 13 kts | 83° |
| 2026-05-07 14:21 | 48.36273 | 11.81652 | 1485 ft | 12 kts | 83° |
| 2026-05-07 14:21 | 48.36282 | 11.81770 | 1479 ft | 12 kts | 83° |
| 2026-05-07 14:21 | 48.36295 | 11.81892 | 1474 ft | 11 kts | 67° |
| 2026-05-07 14:22 | 48.36348 | 11.81967 | 1478 ft | 11 kts | 36° |
| 2026-05-07 14:22 | 48.36415 | 11.82008 | 1477 ft | 11 kts | 356° |
| 2026-05-07 14:22 | 48.36498 | 11.81994 | 1485 ft | 13 kts | 353° |
| 2026-05-07 14:22 | 48.36595 | 11.81976 | 1484 ft | 15 kts | 353° |
| 2026-05-07 14:23 | 48.36669 | 11.81935 | 1479 ft | 10 kts | 298° |
| 2026-05-07 14:23 | 48.36669 | 11.81852 | 1485 ft | 7 kts | 261° |
| 2026-05-07 14:23 | 48.36655 | 11.81666 | 1485 ft | 47 kts | 264° |
| 2026-05-07 14:23 | 48.36588 | 11.80806 | 1486 ft | 116 kts | 263° |
| 2026-05-07 14:24 | 48.36473 | 11.79324 | 1494 ft | 166 kts | 268° |
| 2026-05-07 14:24 | 48.36360 | 11.77856 | 1949 ft | 174 kts | 267° |
| 2026-05-07 14:24 | 48.36225 | 11.76018 | 2747 ft | 178 kts | 265° |
| 2026-05-07 14:24 | 48.36075 | 11.74098 | 3267 ft | 195 kts | 265° |
| 2026-05-07 14:25 | 48.35913 | 11.71966 | 3694 ft | 215 kts | 265° |
| 2026-05-07 14:25 | 48.35795 | 11.69625 | 4330 ft | 229 kts | 276° |
| 2026-05-07 14:25 | 48.36313 | 11.67397 | 5359 ft | 229 kts | 303° |
| 2026-05-07 14:25 | 48.37491 | 11.65790 | 6420 ft | 231 kts | 329° |
| 2026-05-07 14:26 | 48.39064 | 11.65043 | 7186 ft | 245 kts | 345° |
| 2026-05-07 14:26 | 48.40815 | 11.64518 | 7700 ft | 267 kts | 346° |
| 2026-05-07 14:26 | 48.42678 | 11.63979 | 8492 ft | 276 kts | 346° |
| 2026-05-07 14:26 | 48.44603 | 11.63589 | 9390 ft | 285 kts | 356° |
| 2026-05-07 14:27 | 48.46593 | 11.63994 | 10271 ft | 294 kts | 14° |
| 2026-05-07 14:27 | 48.48471 | 11.65297 | 11100 ft | 302 kts | 31° |
| 2026-05-07 14:27 | 48.49579 | 11.66667 | 11677 ft | 308 kts | 44° |
| 2026-05-07 14:27 | 48.50909 | 11.69217 | 12513 ft | 313 kts | 52° |
| 2026-05-07 14:28 | 48.52201 | 11.71907 | 13364 ft | 317 kts | 52° |
| 2026-05-07 14:28 | 48.53502 | 11.74616 | 14153 ft | 321 kts | 52° |
| 2026-05-07 14:28 | 48.54827 | 11.77365 | 14894 ft | 325 kts | 52° |
| 2026-05-07 14:28 | 48.56169 | 11.80138 | 15623 ft | 329 kts | 52° |
| 2026-05-07 14:29 | 48.57527 | 11.82944 | 16347 ft | 333 kts | 52° |
| 2026-05-07 14:29 | 48.58902 | 11.85794 | 17076 ft | 337 kts | 52° |
| 2026-05-07 14:29 | 48.60291 | 11.88679 | 17804 ft | 342 kts | 52° |
| 2026-05-07 14:29 | 48.61696 | 11.91602 | 18483 ft | 346 kts | 52° |
| 2026-05-07 14:30 | 48.63113 | 11.94562 | 19105 ft | 350 kts | 52° |
| 2026-05-07 14:30 | 48.64540 | 11.97555 | 19735 ft | 352 kts | 52° |
| 2026-05-07 14:30 | 48.65982 | 12.00575 | 20383 ft | 355 kts | 52° |
| 2026-05-07 14:30 | 48.67435 | 12.03615 | 21007 ft | 358 kts | 52° |
| 2026-05-07 14:31 | 48.68972 | 12.06599 | 21624 ft | 360 kts | 45° |
| 2026-05-07 14:31 | 48.70837 | 12.09127 | 22226 ft | 360 kts | 33° |
| 2026-05-07 14:31 | 48.72982 | 12.11060 | 22837 ft | 360 kts | 21° |
| 2026-05-07 14:31 | 48.75274 | 12.12618 | 23448 ft | 362 kts | 21° |
| 2026-05-07 14:32 | 48.77612 | 12.14238 | 23640 ft | 378 kts | 22° |
| 2026-05-07 14:32 | 48.80035 | 12.15968 | 23765 ft | 393 kts | 22° |
| 2026-05-07 14:32 | 48.82539 | 12.17790 | 23994 ft | 403 kts | 23° |
| 2026-05-07 14:32 | 48.85080 | 12.19651 | 24382 ft | 408 kts | 23° |
| 2026-05-07 14:33 | 48.87615 | 12.21506 | 24833 ft | 411 kts | 23° |
| 2026-05-07 14:33 | 48.90195 | 12.23377 | 25297 ft | 413 kts | 22° |
| 2026-05-07 14:33 | 48.92811 | 12.25235 | 25744 ft | 416 kts | 22° |
| 2026-05-07 14:33 | 48.95477 | 12.27103 | 26197 ft | 418 kts | 22° |
| 2026-05-07 14:34 | 48.98092 | 12.28925 | 26651 ft | 420 kts | 22° |
| 2026-05-07 14:34 | 49.00758 | 12.30787 | 27096 ft | 422 kts | 22° |
| 2026-05-07 14:34 | 49.03436 | 12.32668 | 27536 ft | 425 kts | 22° |
| 2026-05-07 14:34 | 49.06116 | 12.34557 | 27975 ft | 427 kts | 22° |
| 2026-05-07 14:35 | 49.08832 | 12.36475 | 28413 ft | 429 kts | 22° |
| 2026-05-07 14:35 | 49.11547 | 12.38402 | 28834 ft | 432 kts | 22° |
| 2026-05-07 14:35 | 49.14272 | 12.40340 | 29007 ft | 431 kts | 22° |
| 2026-05-07 14:35 | 49.16938 | 12.42246 | 29024 ft | 414 kts | 22° |
| 2026-05-07 14:36 | 49.19501 | 12.44087 | 29028 ft | 403 kts | 22° |
| 2026-05-07 14:36 | 49.24550 | 12.47693 | 29026 ft | 399 kts | 22° |
| 2026-05-07 14:37 | 49.29589 | 12.51281 | 29020 ft | 399 kts | 22° |
| 2026-05-07 14:37 | 49.34518 | 12.55203 | 29023 ft | 402 kts | 33° |
| 2026-05-07 14:37 | 49.36760 | 12.57763 | 29027 ft | 403 kts | 35° |
| 2026-05-07 14:38 | 49.41240 | 12.62938 | 29007 ft | 403 kts | 35° |
| 2026-05-07 14:38 | 49.45987 | 12.67408 | 29006 ft | 400 kts | 23° |
| 2026-05-07 14:39 | 49.51016 | 12.71085 | 29003 ft | 400 kts | 23° |
| 2026-05-07 14:39 | 49.56004 | 12.74770 | 28999 ft | 401 kts | 24° |
| 2026-05-07 14:40 | 49.61031 | 12.78509 | 28995 ft | 401 kts | 23° |
| 2026-05-07 14:40 | 49.66200 | 12.81804 | 28992 ft | 399 kts | 12° |
| 2026-05-07 14:41 | 49.71651 | 12.83185 | 28987 ft | 397 kts | 6° |
| 2026-05-07 14:41 | 49.77089 | 12.84425 | 28989 ft | 397 kts | 6° |
| 2026-05-07 14:42 | 49.82559 | 12.85690 | 28990 ft | 398 kts | 6° |
| 2026-05-07 14:42 | 49.88068 | 12.86966 | 28989 ft | 398 kts | 6° |
| 2026-05-07 14:43 | 49.93505 | 12.88224 | 28990 ft | 398 kts | 7° |
| 2026-05-07 14:43 | 49.98975 | 12.89491 | 28988 ft | 398 kts | 7° |
| 2026-05-07 14:44 | 50.04480 | 12.90778 | 28992 ft | 397 kts | 7° |
| 2026-05-07 14:44 | 50.09946 | 12.92062 | 28999 ft | 397 kts | 8° |
| 2026-05-07 14:45 | 50.15403 | 12.93344 | 29000 ft | 396 kts | 8° |
| 2026-05-07 14:45 | 50.20851 | 12.94619 | 29005 ft | 396 kts | 8° |
| 2026-05-07 14:46 | 50.26293 | 12.95890 | 29003 ft | 395 kts | 9° |
| 2026-05-07 14:46 | 50.31474 | 12.98622 | 28996 ft | 394 kts | 27° |
| 2026-05-07 14:47 | 50.36368 | 13.02514 | 28988 ft | 394 kts | 27° |
| 2026-05-07 14:47 | 50.41267 | 13.06386 | 28984 ft | 394 kts | 27° |
| 2026-05-07 14:48 | 50.46127 | 13.10233 | 28990 ft | 394 kts | 27° |
| 2026-05-07 14:48 | 50.51007 | 13.14114 | 28994 ft | 393 kts | 27° |
| 2026-05-07 14:49 | 50.55870 | 13.18010 | 28999 ft | 392 kts | 27° |
| 2026-05-07 14:49 | 50.60724 | 13.21926 | 29020 ft | 391 kts | 27° |
| 2026-05-07 14:50 | 50.65602 | 13.25860 | 29001 ft | 391 kts | 27° |
| 2026-05-07 14:50 | 50.70404 | 13.29726 | 28999 ft | 391 kts | 27° |
| 2026-05-07 14:51 | 50.75246 | 13.33632 | 28997 ft | 390 kts | 27° |
| 2026-05-07 14:51 | 50.80078 | 13.37554 | 28995 ft | 390 kts | 27° |
| 2026-05-07 14:52 | 50.84899 | 13.41487 | 28988 ft | 390 kts | 27° |
| 2026-05-07 14:52 | 50.89735 | 13.45426 | 28992 ft | 391 kts | 27° |
| 2026-05-07 14:53 | 50.94733 | 13.48774 | 28998 ft | 391 kts | 14° |
| 2026-05-07 14:53 | 51.00097 | 13.50281 | 29003 ft | 392 kts | 9° |
| 2026-05-07 14:54 | 51.05472 | 13.51728 | 29008 ft | 392 kts | 9° |
| 2026-05-07 14:54 | 51.10837 | 13.53182 | 28995 ft | 391 kts | 9° |
| 2026-05-07 14:55 | 51.13508 | 13.53903 | 28717 ft | 387 kts | 9° |
| 2026-05-07 14:55 | 51.16148 | 13.54618 | 28439 ft | 384 kts | 9° |
| 2026-05-07 14:55 | 51.18776 | 13.55329 | 28161 ft | 382 kts | 9° |
| 2026-05-07 14:55 | 51.21384 | 13.56034 | 27888 ft | 380 kts | 9° |
| 2026-05-07 14:56 | 51.23994 | 13.56743 | 27614 ft | 379 kts | 9° |
| 2026-05-07 14:56 | 51.26584 | 13.57446 | 27348 ft | 377 kts | 9° |
| 2026-05-07 14:56 | 51.29140 | 13.58139 | 27015 ft | 370 kts | 9° |
| 2026-05-07 14:56 | 51.31668 | 13.58824 | 26584 ft | 366 kts | 9° |
| 2026-05-07 14:57 | 51.34167 | 13.59506 | 26150 ft | 363 kts | 9° |
| 2026-05-07 14:57 | 51.36645 | 13.60184 | 25717 ft | 360 kts | 9° |
| 2026-05-07 14:57 | 51.39114 | 13.60860 | 25266 ft | 358 kts | 9° |
| 2026-05-07 14:57 | 51.41565 | 13.61529 | 24819 ft | 356 kts | 9° |
| 2026-05-07 14:58 | 51.44005 | 13.62191 | 24361 ft | 355 kts | 9° |
| 2026-05-07 14:58 | 51.46435 | 13.62853 | 23910 ft | 354 kts | 9° |
| 2026-05-07 14:58 | 51.48856 | 13.63520 | 23431 ft | 353 kts | 9° |
| 2026-05-07 14:58 | 51.51270 | 13.64191 | 22957 ft | 351 kts | 9° |
| 2026-05-07 14:59 | 51.53634 | 13.64849 | 22511 ft | 348 kts | 9° |
| 2026-05-07 14:59 | 51.56044 | 13.65516 | 22067 ft | 345 kts | 9° |
| 2026-05-07 14:59 | 51.58394 | 13.66218 | 21638 ft | 343 kts | 11° |
| 2026-05-07 14:59 | 51.60694 | 13.67019 | 21214 ft | 341 kts | 12° |
| 2026-05-07 15:00 | 51.63039 | 13.67896 | 20572 ft | 346 kts | 12° |
| 2026-05-07 15:00 | 51.65395 | 13.68800 | 19670 ft | 359 kts | 13° |
| 2026-05-07 15:00 | 51.67873 | 13.69749 | 19105 ft | 362 kts | 12° |
| 2026-05-07 15:00 | 51.70317 | 13.70673 | 18667 ft | 360 kts | 12° |
| 2026-05-07 15:01 | 51.72753 | 13.71579 | 18201 ft | 359 kts | 12° |
| 2026-05-07 15:01 | 51.75176 | 13.72470 | 17721 ft | 356 kts | 12° |
| 2026-05-07 15:01 | 51.77545 | 13.73338 | 17294 ft | 341 kts | 12° |
| 2026-05-07 15:01 | 51.79794 | 13.74162 | 16894 ft | 334 kts | 12° |
| 2026-05-07 15:02 | 51.82087 | 13.75005 | 16479 ft | 333 kts | 12° |
| 2026-05-07 15:02 | 51.84344 | 13.75837 | 16084 ft | 332 kts | 12° |
| 2026-05-07 15:02 | 51.86595 | 13.76672 | 15675 ft | 332 kts | 12° |
| 2026-05-07 15:02 | 51.88848 | 13.77509 | 15280 ft | 332 kts | 12° |
| 2026-05-07 15:03 | 51.91115 | 13.78098 | 14881 ft | 329 kts | 1° |
| 2026-05-07 15:03 | 51.93382 | 13.77809 | 14488 ft | 327 kts | 346° |
| 2026-05-07 15:03 | 51.95527 | 13.76665 | 14103 ft | 325 kts | 335° |
| 2026-05-07 15:03 | 51.97586 | 13.75253 | 13695 ft | 325 kts | 335° |
| 2026-05-07 15:04 | 51.99666 | 13.73834 | 13295 ft | 324 kts | 335° |
| 2026-05-07 15:04 | 52.01735 | 13.72430 | 12887 ft | 321 kts | 336° |
| 2026-05-07 15:04 | 52.03810 | 13.70993 | 12495 ft | 318 kts | 332° |
| 2026-05-07 15:04 | 52.05654 | 13.69051 | 12088 ft | 315 kts | 318° |
| 2026-05-07 15:05 | 52.07287 | 13.66702 | 11690 ft | 313 kts | 317° |
| 2026-05-07 15:05 | 52.08774 | 13.64146 | 11277 ft | 310 kts | 304° |
| 2026-05-07 15:05 | 52.09781 | 13.61082 | 10878 ft | 307 kts | 289° |
| 2026-05-07 15:05 | 52.10248 | 13.57714 | 10492 ft | 304 kts | 275° |
| 2026-05-07 15:06 | 52.10486 | 13.54384 | 10225 ft | 292 kts | 276° |
| 2026-05-07 15:06 | 52.10730 | 13.51106 | 9664 ft | 293 kts | 276° |
| 2026-05-07 15:06 | 52.10978 | 13.47814 | 9248 ft | 292 kts | 277° |
| 2026-05-07 15:06 | 52.11226 | 13.44543 | 8817 ft | 291 kts | 277° |
| 2026-05-07 15:07 | 52.11472 | 13.41317 | 8596 ft | 282 kts | 277° |
| 2026-05-07 15:07 | 52.11710 | 13.38205 | 8454 ft | 271 kts | 277° |
| 2026-05-07 15:07 | 52.12073 | 13.35273 | 8329 ft | 259 kts | 291° |
| 2026-05-07 15:07 | 52.12893 | 13.32759 | 8060 ft | 254 kts | 307° |
| 2026-05-07 15:08 | 52.13961 | 13.30442 | 7787 ft | 251 kts | 308° |
| 2026-05-07 15:08 | 52.15009 | 13.28182 | 7448 ft | 250 kts | 309° |
| 2026-05-07 15:08 | 52.16049 | 13.25939 | 7082 ft | 246 kts | 309° |
| 2026-05-07 15:08 | 52.17078 | 13.23718 | 6600 ft | 245 kts | 309° |
| 2026-05-07 15:09 | 52.18111 | 13.21593 | 6126 ft | 242 kts | 317° |
| 2026-05-07 15:09 | 52.19473 | 13.19981 | 5586 ft | 236 kts | 336° |
| 2026-05-07 15:09 | 52.21010 | 13.19226 | 5039 ft | 233 kts | 355° |
| 2026-05-07 15:09 | 52.22617 | 13.19039 | 4475 ft | 231 kts | 358° |
| 2026-05-07 15:10 | 52.24174 | 13.18864 | 4292 ft | 215 kts | 358° |
| 2026-05-07 15:10 | 52.25623 | 13.18697 | 4242 ft | 203 kts | 358° |
| 2026-05-07 15:10 | 52.26994 | 13.18546 | 4175 ft | 192 kts | 1° |
| 2026-05-07 15:10 | 52.28281 | 13.18870 | 4067 ft | 186 kts | 21° |
| 2026-05-07 15:11 | 52.29398 | 13.19868 | 3932 ft | 182 kts | 40° |
| 2026-05-07 15:11 | 52.30230 | 13.21412 | 3730 ft | 182 kts | 59° |
| 2026-05-07 15:11 | 52.30584 | 13.22662 | 3596 ft | 184 kts | 68° |
| 2026-05-07 15:11 | 52.31061 | 13.24646 | 3346 ft | 186 kts | 67° |
| 2026-05-07 15:12 | 52.31537 | 13.26626 | 3083 ft | 189 kts | 67° |
| 2026-05-07 15:12 | 52.32014 | 13.28612 | 2834 ft | 191 kts | 67° |
| 2026-05-07 15:12 | 52.32504 | 13.30655 | 2574 ft | 192 kts | 67° |
| 2026-05-07 15:12 | 52.32988 | 13.32671 | 2307 ft | 192 kts | 67° |
| 2026-05-07 15:13 | 52.33471 | 13.34688 | 2057 ft | 185 kts | 68° |
| 2026-05-07 15:13 | 52.33917 | 13.36557 | 1801 ft | 169 kts | 67° |
| 2026-05-07 15:13 | 52.34333 | 13.38293 | 1563 ft | 155 kts | 68° |
| 2026-05-07 15:13 | 52.34674 | 13.39720 | 1380 ft | 143 kts | 68° |
| 2026-05-07 15:14 | 52.35024 | 13.41187 | 1179 ft | 138 kts | 68° |
| 2026-05-07 15:14 | 52.35369 | 13.42631 | 978 ft | 135 kts | 68° |
| 2026-05-07 15:14 | 52.35712 | 13.44031 | 778 ft | 134 kts | 68° |
| 2026-05-07 15:14 | 52.36050 | 13.45463 | 573 ft | 133 kts | 69° |
| 2026-05-07 15:15 | 52.36385 | 13.46867 | 405 ft | 132 kts | 70° |
| 2026-05-07 15:15 | 52.36711 | 13.48265 | 214 ft | 131 kts | 70° |
| 2026-05-07 15:15 | 52.37033 | 13.49605 | 159 ft | 114 kts | 70° |
| 2026-05-07 15:15 | 52.37240 | 13.50483 | 157 ft | 47 kts | 68° |
| 2026-05-07 15:16 | 52.37302 | 13.50786 | 157 ft | 19 kts | 81° |
| 2026-05-07 15:16 | 52.37305 | 13.50993 | 159 ft | 19 kts | 94° |
| 2026-05-07 15:16 | 52.37285 | 13.51197 | 162 ft | 15 kts | 98° |
| 2026-05-07 15:16 | 52.37247 | 13.51336 | 161 ft | 15 kts | 157° |
| 2026-05-07 15:17 | 52.37179 | 13.51223 | 159 ft | 16 kts | 249° |
| 2026-05-07 15:17 | 52.37143 | 13.51069 | 159 ft | 14 kts | 250° |
| 2026-05-07 15:17 | 52.37109 | 13.50933 | 159 ft | 13 kts | 248° |
| 2026-05-07 15:17 | 52.37079 | 13.50802 | 159 ft | 12 kts | 249° |
| 2026-05-07 15:18 | 52.37048 | 13.50675 | 158 ft | 12 kts | 248° |
| 2026-05-07 15:18 | 52.37017 | 13.50541 | 156 ft | 13 kts | 250° |
| 2026-05-07 15:18 | 52.36985 | 13.50407 | 155 ft | 13 kts | 248° |
| 2026-05-07 15:18 | 52.36953 | 13.50271 | 154 ft | 13 kts | 249° |
| 2026-05-07 15:19 | 52.36919 | 13.50149 | 152 ft | 11 kts | 231° |
| 2026-05-07 15:19 | 52.36840 | 13.50149 | 151 ft | 13 kts | 158° |
| 2026-05-07 15:19 | 52.36768 | 13.50184 | 152 ft | 10 kts | 180° |
| 2026-05-07 15:19 | 52.36687 | 13.50164 | 151 ft | 12 kts | 170° |
| 2026-05-07 15:20 | 52.36617 | 13.50210 | 151 ft | 11 kts | 159° |
| 2026-05-07 15:20 | 52.36572 | 13.50240 | 151 ft | 5 kts | 145° |
| 2026-05-07 15:20 | 52.36568 | 13.50273 | 152 ft | 1 kts | 77° |
| 2026-05-07 15:20 | 52.36572 | 13.50284 | 152 ft | 1 kts | 60° |
| 2026-05-07 15:21 | 52.36580 | 13.50305 | 152 ft | 1 kts | 60° |
| 2026-05-07 15:21 | 52.36592 | 13.50355 | 154 ft | 7 kts | 72° |
| 2026-05-07 15:21 | 52.36608 | 13.50422 | 154 ft | 2 kts | 68° |
| 2026-05-07 15:21 | 52.36610 | 13.50430 | 154 ft | 2 kts | 69° |
| 2026-05-07 15:22 | 52.36612 | 13.50441 | 155 ft | 2 kts | 68° |
| 2026-05-07 15:22 | 52.36614 | 13.50449 | 155 ft | 0 kts | 68° |